Time;durP1;ratioP1;P1;durP2;ratioP2;P2;SDS_P1;SDS_P2;PMS_P1;PMS_P2;Temp;Humidity;BMP_temperature;BMP_pressure;BME280_temperature;BME280_humidity;BME280_pressure;Samples;Min_cycle;Max_cycle;Signal;HPM_P1;HPM_P2
2021/11/30 00:00:00;;;;;;;11.68;6.47;;;;;;;;;;5053086;28;20060;-89
2021/11/30 00:02:25;;;;;;;12.80;7.35;;;;;;;;;;5035041;28;20020;-90
2021/11/30 00:04:51;;;;;;;10.48;6.20;;;;;;;;;;5052815;28;20021;-90
2021/11/30 00:07:16;;;;;;;10.32;6.28;;;;;;;;;;5052879;28;20465;-90
2021/11/30 00:12:08;;;;;;;10.02;6.63;;;;;;;;;;5064014;28;20017;-90
2021/11/30 00:14:36;;;;;;;13.13;7.25;;;;;;;;;;5036737;28;20025;-90
2021/11/30 00:17:01;;;;;;;11.85;5.70;;;;;;;;;;5035195;28;20515;-90
2021/11/30 00:19:27;;;;;;;7.35;5.82;;;;;;;;;;5034992;28;20036;-89
2021/11/30 00:21:52;;;;;;;9.30;5.55;;;;;;;;;;5052761;28;20063;-90
2021/11/30 00:24:18;;;;;;;7.32;4.85;;;;;;;;;;5034530;28;20013;-90
2021/11/30 00:26:43;;;;;;;10.13;4.60;;;;;;;;;;5051701;28;20021;-90
2021/11/30 00:29:08;;;;;;;8.18;4.80;;;;;;;;;;5034255;28;20488;-90
2021/11/30 00:31:33;;;;;;;5.68;4.15;;;;;;;;;;5052631;28;20016;-90
2021/11/30 00:33:59;;;;;;;7.18;4.70;;;;;;;;;;5052371;28;20020;-90
2021/11/30 00:36:24;;;;;;;9.35;4.57;;;;;;;;;;5034046;28;20164;-90
2021/11/30 00:38:49;;;;;;;5.90;4.15;;;;;;;;;;5034485;28;20020;-90
2021/11/30 00:41:14;;;;;;;8.57;4.00;;;;;;;;;;5052539;28;20031;-90
2021/11/30 00:43:40;;;;;;;5.35;3.67;;;;;;;;;;5052899;28;20032;-89
2021/11/30 00:48:51;;;;;;;7.15;4.68;;;;;;;;;;5052176;28;20093;-90
2021/11/30 00:51:18;;;;;;;7.72;3.65;;;;;;;;;;5033958;28;20143;-89
2021/11/30 00:53:45;;;;;;;7.80;3.70;;;;;;;;;;5051906;28;20017;-89
2021/11/30 00:56:11;;;;;;;6.60;3.30;;;;;;;;;;5034090;28;20032;-89
2021/11/30 00:58:36;;;;;;;4.82;2.85;;;;;;;;;;5051963;28;20070;-89
2021/11/30 01:01:02;;;;;;;6.03;2.78;;;;;;;;;;5033603;28;20452;-89
2021/11/30 01:03:27;;;;;;;6.28;2.38;;;;;;;;;;5033549;28;20505;-89
2021/11/30 01:05:53;;;;;;;3.20;2.33;;;;;;;;;;5033641;28;20119;-89
2021/11/30 01:08:18;;;;;;;7.00;2.35;;;;;;;;;;5033455;28;20033;-89
2021/11/30 01:10:44;;;;;;;5.05;2.55;;;;;;;;;;5051561;28;20598;-89
2021/11/30 01:13:09;;;;;;;7.53;2.40;;;;;;;;;;5051292;28;20094;-89
2021/11/30 01:15:35;;;;;;;6.18;2.45;;;;;;;;;;5034536;28;20021;-89
2021/11/30 01:18:01;;;;;;;4.22;2.05;;;;;;;;;;5033855;28;20016;-90
2021/11/30 01:20:26;;;;;;;4.20;1.88;;;;;;;;;;5033464;28;20052;-90
2021/11/30 01:22:52;;;;;;;3.35;1.60;;;;;;;;;;5051240;28;20021;-89
2021/11/30 01:25:18;;;;;;;2.25;1.45;;;;;;;;;;5051388;28;20382;-89
2021/11/30 01:27:45;;;;;;;3.30;1.45;;;;;;;;;;5032705;28;20183;-89
2021/11/30 01:30:13;;;;;;;5.88;1.55;;;;;;;;;;5033120;28;20096;-89
2021/11/30 01:32:41;;;;;;;3.90;1.77;;;;;;;;;;5051821;28;20025;-89
2021/11/30 01:35:06;;;;;;;8.05;1.67;;;;;;;;;;5051226;28;20025;-89
2021/11/30 01:37:33;;;;;;;6.07;2.15;;;;;;;;;;5033011;28;20025;-89
2021/11/30 01:39:58;;;;;;;3.60;1.85;;;;;;;;;;5032863;28;20032;-89
2021/11/30 01:42:24;;;;;;;5.22;1.75;;;;;;;;;;5051003;28;20025;-89
2021/11/30 01:44:57;;;;;;;5.25;2.05;;;;;;;;;;5036237;28;20089;-89
2021/11/30 01:49:47;;;;;;;4.75;2.05;;;;;;;;;;5050858;28;20033;-90
2021/11/30 01:52:13;;;;;;;5.82;2.60;;;;;;;;;;5051134;28;20025;-90
2021/11/30 01:54:40;;;;;;;10.23;3.58;;;;;;;;;;5050827;28;20029;-89
2021/11/30 01:57:07;;;;;;;6.43;4.25;;;;;;;;;;5051291;28;20024;-90
2021/11/30 01:59:32;;;;;;;5.50;3.75;;;;;;;;;;5033218;28;20017;-90
2021/11/30 02:01:57;;;;;;;7.05;4.47;;;;;;;;;;5032720;28;20078;-89
2021/11/30 02:04:22;;;;;;;8.32;4.82;;;;;;;;;;5050762;28;20013;-90
2021/11/30 02:06:48;;;;;;;11.93;6.00;;;;;;;;;;5050847;28;20033;-89
2021/11/30 02:09:13;;;;;;;8.50;5.65;;;;;;;;;;5032554;28;20029;-89
2021/11/30 02:11:38;;;;;;;13.85;7.53;;;;;;;;;;5032824;28;20061;-89
2021/11/30 02:14:04;;;;;;;19.50;6.68;;;;;;;;;;5032583;28;20025;-89
2021/11/30 02:16:29;;;;;;;12.10;6.97;;;;;;;;;;5036822;28;20013;-89
2021/11/30 02:18:59;;;;;;;14.20;7.65;;;;;;;;;;5032703;28;20029;-89
2021/11/30 02:21:25;;;;;;;16.88;7.70;;;;;;;;;;5032670;28;20099;-89
2021/11/30 02:26:21;;;;;;;10.93;6.90;;;;;;;;;;5050866;28;20096;-88
2021/11/30 02:28:48;;;;;;;15.32;6.75;;;;;;;;;;5032055;28;20219;-88
2021/11/30 02:31:15;;;;;;;13.45;5.93;;;;;;;;;;5050655;28;20485;-88
2021/11/30 02:33:40;;;;;;;9.65;5.03;;;;;;;;;;5050560;28;20021;-89
2021/11/30 02:36:28;;;;;;;12.27;4.70;;;;;;;;;;5050452;28;20024;-89
2021/11/30 02:38:53;;;;;;;12.73;4.38;;;;;;;;;;5050492;28;20039;-89
2021/11/30 02:41:19;;;;;;;6.63;4.05;;;;;;;;;;5050406;28;20021;-89
2021/11/30 02:43:44;;;;;;;7.95;4.45;;;;;;;;;;5040552;28;20036;-90
2021/11/30 02:46:09;;;;;;;7.68;3.35;;;;;;;;;;5056374;28;20025;-89
2021/11/30 02:48:35;;;;;;;8.57;2.80;;;;;;;;;;5032679;28;20037;-89
2021/11/30 02:51:05;;;;;;;11.18;3.45;;;;;;;;;;5036207;28;20029;-90
2021/11/30 02:53:31;;;;;;;12.65;2.88;;;;;;;;;;5054226;28;20079;-89
2021/11/30 02:55:56;;;;;;;10.50;1.88;;;;;;;;;;5036147;28;20017;-89
2021/11/30 02:58:22;;;;;;;7.15;1.98;;;;;;;;;;5054292;28;20104;-90
2021/11/30 03:00:47;;;;;;;8.68;1.83;;;;;;;;;;5036076;28;20024;-90
2021/11/30 03:03:13;;;;;;;11.70;2.30;;;;;;;;;;5036158;28;20036;-89
2021/11/30 03:05:38;;;;;;;12.23;2.28;;;;;;;;;;5036237;28;20028;-89
2021/11/30 03:08:04;;;;;;;11.82;2.47;;;;;;;;;;5035987;28;20511;-89
2021/11/30 03:10:29;;;;;;;7.78;2.28;;;;;;;;;;5054207;28;20136;-90
2021/11/30 03:12:54;;;;;;;8.05;2.13;;;;;;;;;;5036083;28;20047;-89
2021/11/30 03:15:22;;;;;;;10.10;2.45;;;;;;;;;;5035822;28;20028;-90
2021/11/30 03:17:48;;;;;;;6.07;2.00;;;;;;;;;;5060538;28;20017;-89
2021/11/30 03:20:14;;;;;;;6.93;2.17;;;;;;;;;;5054228;28;20028;-90
2021/11/30 03:22:39;;;;;;;6.22;2.10;;;;;;;;;;5035671;28;20025;-89
2021/11/30 03:25:06;;;;;;;6.97;2.30;;;;;;;;;;5053595;28;20017;-90
2021/11/30 03:27:31;;;;;;;9.50;2.42;;;;;;;;;;5053671;28;20057;-90
2021/11/30 03:29:56;;;;;;;4.90;2.42;;;;;;;;;;5035941;28;20036;-90
2021/11/30 03:35:07;;;;;;;3.58;2.28;;;;;;;;;;5054234;28;20024;-89
2021/11/30 03:37:32;;;;;;;9.13;2.63;;;;;;;;;;5053809;28;20017;-89
2021/11/30 03:39:58;;;;;;;9.23;1.98;;;;;;;;;;5035240;28;20025;-90
2021/11/30 03:42:24;;;;;;;7.68;2.70;;;;;;;;;;5034871;28;20107;-89
2021/11/30 03:44:50;;;;;;;6.88;2.03;;;;;;;;;;5035190;28;20116;-89
2021/11/30 03:47:15;;;;;;;7.80;2.13;;;;;;;;;;5053225;28;20133;-89
2021/11/30 03:49:40;;;;;;;4.55;2.53;;;;;;;;;;5037983;28;20056;-88
2021/11/30 03:52:06;;;;;;;7.07;3.22;;;;;;;;;;5061814;28;20437;-90
2021/11/30 03:54:31;;;;;;;5.65;2.90;;;;;;;;;;5034944;28;20035;-89
2021/11/30 03:56:57;;;;;;;14.77;3.47;;;;;;;;;;5035050;28;20021;-89
2021/11/30 03:59:22;;;;;;;18.55;3.33;;;;;;;;;;5035556;28;20060;-89
2021/11/30 04:01:48;;;;;;;13.32;3.75;;;;;;;;;;5033903;28;20024;-89
2021/11/30 04:04:21;;;;;;;11.60;3.88;;;;;;;;;;5034804;28;20433;-90
2021/11/30 04:06:48;;;;;;;16.23;4.28;;;;;;;;;;5034688;28;20067;-90
2021/11/30 04:09:13;;;;;;;18.38;4.28;;;;;;;;;;5052644;28;20116;-90
2021/11/30 04:11:40;;;;;;;17.55;3.92;;;;;;;;;;5034942;28;20131;-90
2021/11/30 04:14:05;;;;;;;14.80;5.18;;;;;;;;;;5034792;28;20362;-89
2021/11/30 04:16:30;;;;;;;28.23;7.70;;;;;;;;;;5034968;28;20035;-89
2021/11/30 04:18:56;;;;;;;19.10;3.55;;;;;;;;;;5035021;28;20072;-90
2021/11/30 04:21:22;;;;;;;23.27;3.42;;;;;;;;;;5034709;28;20013;-90
2021/11/30 04:23:48;;;;;;;13.60;3.00;;;;;;;;;;5035161;28;20040;-90
2021/11/30 04:26:13;;;;;;;38.13;4.28;;;;;;;;;;5050158;28;20036;-90
2021/11/30 04:28:40;;;;;;;22.98;4.40;;;;;;;;;;5052266;28;20390;-90
2021/11/30 04:31:05;;;;;;;25.55;4.68;;;;;;;;;;5034589;28;20487;-90
2021/11/30 04:33:31;;;;;;;22.48;3.35;;;;;;;;;;5052438;28;20102;-90
2021/11/30 04:35:56;;;;;;;33.00;4.00;;;;;;;;;;5034554;28;20017;-90
2021/11/30 04:38:22;;;;;;;22.75;4.03;;;;;;;;;;5034357;28;20032;-91
2021/11/30 04:40:47;;;;;;;15.77;2.90;;;;;;;;;;5052282;28;20499;-90
2021/11/30 04:43:13;;;;;;;23.98;3.63;;;;;;;;;;5052202;28;20028;-91
2021/11/30 04:48:14;;;;;;;29.45;4.05;;;;;;;;;;5052265;28;20362;-90
2021/11/30 04:50:42;;;;;;;28.52;5.05;;;;;;;;;;5034057;28;20564;-90
2021/11/30 04:53:08;;;;;;;23.80;3.72;;;;;;;;;;5034254;28;20560;-90
2021/11/30 04:55:33;;;;;;;23.42;4.57;;;;;;;;;;5033992;28;20104;-90
2021/11/30 04:58:00;;;;;;;21.20;4.18;;;;;;;;;;5055915;28;20048;-89
2021/11/30 05:00:26;;;;;;;28.45;4.03;;;;;;;;;;5061926;28;20025;-90
2021/11/30 05:02:51;;;;;;;24.88;4.68;;;;;;;;;;5034119;28;20090;-90
2021/11/30 05:05:16;;;;;;;24.67;3.67;;;;;;;;;;5034044;28;20028;-89
2021/11/30 05:07:42;;;;;;;29.95;4.50;;;;;;;;;;5051901;28;20025;-90
2021/11/30 05:10:07;;;;;;;21.63;3.63;;;;;;;;;;5052233;28;20423;-90
2021/11/30 05:12:33;;;;;;;25.58;4.80;;;;;;;;;;5033526;28;20062;-90
2021/11/30 05:14:58;;;;;;;29.73;4.13;;;;;;;;;;5051716;28;20032;-90
2021/11/30 05:17:23;;;;;;;31.10;5.43;;;;;;;;;;5051763;28;20071;-90
2021/11/30 05:19:49;;;;;;;34.00;4.60;;;;;;;;;;5051598;28;20032;-90
2021/11/30 05:22:14;;;;;;;29.02;4.68;;;;;;;;;;5051791;28;20021;-90
2021/11/30 05:24:39;;;;;;;39.05;6.55;;;;;;;;;;5052769;28;20035;-90
2021/11/30 05:27:05;;;;;;;38.08;4.55;;;;;;;;;;5034082;28;20388;-90
2021/11/30 05:29:30;;;;;;;32.78;5.10;;;;;;;;;;5033246;28;20044;-90
2021/11/30 05:31:55;;;;;;;39.08;5.55;;;;;;;;;;5051639;28;20023;-90
2021/11/30 05:34:21;;;;;;;33.47;4.88;;;;;;;;;;5051503;28;20052;-90
2021/11/30 05:36:46;;;;;;;24.45;5.05;;;;;;;;;;5033575;28;20021;-90
2021/11/30 05:44:42;;;;;;;32.05;5.90;;;;;;;;;;4571125;22;20053;-88
2021/11/30 05:47:10;;;;;;;15.60;2.67;;;;;;;;;;5021554;28;20044;-88
2021/11/30 05:49:36;;;;;;;20.73;3.47;;;;;;;;;;5026802;28;20033;-88
2021/11/30 05:52:04;;;;;;;33.38;4.18;;;;;;;;;;5013160;28;20124;-88
2021/11/30 05:54:31;;;;;;;28.40;4.05;;;;;;;;;;5012459;28;20556;-88
2021/11/30 05:56:56;;;;;;;14.65;3.00;;;;;;;;;;5026558;28;20128;-88
2021/11/30 05:59:22;;;;;;;16.15;3.78;;;;;;;;;;5011516;28;20128;-88
2021/11/30 06:01:48;;;;;;;20.83;3.67;;;;;;;;;;5012843;28;20469;-88
2021/11/30 06:04:14;;;;;;;21.17;3.63;;;;;;;;;;5011984;28;20025;-88
2021/11/30 06:06:40;;;;;;;15.35;2.78;;;;;;;;;;5012122;28;20489;-88
2021/11/30 06:09:07;;;;;;;23.23;5.38;;;;;;;;;;5018674;28;20040;-88
2021/11/30 06:11:33;;;;;;;27.30;4.93;;;;;;;;;;5011765;28;20029;-88
2021/11/30 06:14:01;;;;;;;23.95;3.95;;;;;;;;;;5031450;28;20545;-88
2021/11/30 06:16:26;;;;;;;32.75;4.13;;;;;;;;;;5014275;28;20108;-88
2021/11/30 06:18:52;;;;;;;26.77;5.28;;;;;;;;;;5034173;28;20422;-88
2021/11/30 06:21:18;;;;;;;36.97;7.40;;;;;;;;;;5012156;28;20018;-88
2021/11/30 06:23:45;;;;;;;29.67;4.57;;;;;;;;;;5007500;28;20081;-88
2021/11/30 06:26:11;;;;;;;35.58;6.63;;;;;;;;;;4992689;28;20033;-88
2021/11/30 06:28:37;;;;;;;35.03;5.75;;;;;;;;;;4992193;28;20040;-88
2021/11/30 06:31:04;;;;;;;38.30;6.95;;;;;;;;;;4991628;28;20040;-88
2021/11/30 06:33:30;;;;;;;48.33;6.50;;;;;;;;;;4994569;28;20784;-88
2021/11/30 06:35:56;;;;;;;30.13;4.97;;;;;;;;;;5029769;28;20025;-88
2021/11/30 06:38:21;;;;;;;37.33;5.47;;;;;;;;;;5030057;28;20021;-87
2021/11/30 06:40:46;;;;;;;30.23;6.80;;;;;;;;;;5013102;28;20477;-88
2021/11/30 06:43:12;;;;;;;30.98;4.53;;;;;;;;;;5011447;28;20057;-88
2021/11/30 06:45:37;;;;;;;28.52;5.43;;;;;;;;;;5029571;28;20627;-88
2021/11/30 06:48:03;;;;;;;34.78;7.45;;;;;;;;;;5029758;28;20741;-88
2021/11/30 06:50:28;;;;;;;23.77;4.72;;;;;;;;;;5029380;28;20040;-88
2021/11/30 06:52:54;;;;;;;25.13;4.93;;;;;;;;;;5012894;28;20025;-88
2021/11/30 06:55:20;;;;;;;26.08;4.63;;;;;;;;;;5029549;28;20517;-88
2021/11/30 06:57:45;;;;;;;24.58;4.70;;;;;;;;;;5012125;28;20026;-88
2021/11/30 07:00:11;;;;;;;22.35;5.93;;;;;;;;;;5029364;28;20017;-88
2021/11/30 07:02:37;;;;;;;35.47;6.05;;;;;;;;;;5029316;28;20838;-88
2021/11/30 07:05:15;;;;;;;30.30;4.28;;;;;;;;;;5013688;28;20026;-87
2021/11/30 07:10:36;;;;;;;30.17;6.35;;;;;;;;;;5037964;28;20087;-88
2021/11/30 07:15:30;;;;;;;34.95;6.00;;;;;;;;;;5029527;28;20030;-88
2021/11/30 07:17:57;;;;;;;31.55;5.78;;;;;;;;;;5011130;28;20025;-88
2021/11/30 07:20:23;;;;;;;32.33;5.85;;;;;;;;;;5011279;28;20028;-87
2021/11/30 07:22:49;;;;;;;30.50;5.82;;;;;;;;;;5024619;28;20017;-88
2021/11/30 07:25:14;;;;;;;26.10;5.68;;;;;;;;;;5011564;28;20066;-88
2021/11/30 07:27:39;;;;;;;37.33;9.00;;;;;;;;;;5029732;28;20045;-88
2021/11/30 07:30:05;;;;;;;27.90;6.28;;;;;;;;;;5022863;28;20129;-88
2021/11/30 07:32:30;;;;;;;32.60;5.90;;;;;;;;;;5011725;28;20022;-88
2021/11/30 07:34:55;;;;;;;25.17;4.55;;;;;;;;;;5014046;28;20048;-87
2021/11/30 07:37:21;;;;;;;33.05;5.88;;;;;;;;;;5036012;28;20446;-88
2021/11/30 07:39:46;;;;;;;29.45;4.85;;;;;;;;;;5014711;28;20608;-88
2021/11/30 07:42:12;;;;;;;33.63;5.68;;;;;;;;;;5032502;28;20056;-87
2021/11/30 07:44:37;;;;;;;27.67;4.95;;;;;;;;;;5032128;28;20382;-88
2021/11/30 07:47:02;;;;;;;39.35;6.90;;;;;;;;;;5014292;28;20025;-88
2021/11/30 07:49:28;;;;;;;34.33;6.05;;;;;;;;;;5014285;28;20183;-88
2021/11/30 07:51:53;;;;;;;33.28;5.03;;;;;;;;;;5014768;28;20021;-88
2021/11/30 07:54:19;;;;;;;32.50;5.93;;;;;;;;;;5014249;28;20018;-88
2021/11/30 07:56:47;;;;;;;32.45;5.18;;;;;;;;;;5013895;28;20757;-88
2021/11/30 07:59:12;;;;;;;35.40;7.93;;;;;;;;;;5035603;28;20096;-88
2021/11/30 08:01:38;;;;;;;38.38;6.65;;;;;;;;;;5038181;28;20030;-88
2021/11/30 08:04:03;;;;;;;35.60;5.78;;;;;;;;;;5035565;28;20036;-87
2021/11/30 08:06:29;;;;;;;45.15;7.63;;;;;;;;;;5023874;28;20576;-87
2021/11/30 08:08:55;;;;;;;40.63;5.75;;;;;;;;;;5013979;28;20409;-87
2021/11/30 08:11:21;;;;;;;37.60;6.55;;;;;;;;;;5014320;28;20029;-87
2021/11/30 08:13:46;;;;;;;51.22;7.75;;;;;;;;;;5031186;28;20026;-87
2021/11/30 08:16:12;;;;;;;43.65;6.28;;;;;;;;;;5013897;28;20704;-88
2021/11/30 08:18:37;;;;;;;35.35;7.18;;;;;;;;;;5031313;28;20362;-88
2021/11/30 08:21:02;;;;;;;44.20;6.80;;;;;;;;;;5031631;28;20032;-88
2021/11/30 08:23:28;;;;;;;26.90;6.57;;;;;;;;;;4997947;28;20049;-87
2021/11/30 08:25:53;;;;;;;35.53;6.22;;;;;;;;;;5013533;28;20100;-88
2021/11/30 08:28:19;;;;;;;36.55;5.97;;;;;;;;;;5031383;28;20029;-88
2021/11/30 08:30:46;;;;;;;38.45;6.07;;;;;;;;;;5014160;28;20025;-88
2021/11/30 08:33:11;;;;;;;32.95;5.90;;;;;;;;;;5012650;28;20712;-88
2021/11/30 08:35:37;;;;;;;29.95;5.68;;;;;;;;;;5013043;28;20061;-88
2021/11/30 08:38:03;;;;;;;37.55;6.90;;;;;;;;;;5013835;28;20055;-88
2021/11/30 08:40:28;;;;;;;26.83;5.97;;;;;;;;;;5012886;28;20021;-87
2021/11/30 08:42:54;;;;;;;30.83;5.30;;;;;;;;;;5012998;28;20057;-87
2021/11/30 08:45:19;;;;;;;42.50;7.22;;;;;;;;;;5031504;28;20096;-87
2021/11/30 08:47:44;;;;;;;33.92;7.65;;;;;;;;;;5012233;28;20026;-87
2021/11/30 08:50:11;;;;;;;36.22;7.88;;;;;;;;;;5013969;28;20187;-88
2021/11/30 08:52:37;;;;;;;27.10;6.18;;;;;;;;;;5013017;28;20033;-87
2021/11/30 08:55:03;;;;;;;36.55;6.80;;;;;;;;;;5030676;28;20026;-88
2021/11/30 08:57:28;;;;;;;39.00;6.95;;;;;;;;;;5012940;28;20017;-87
2021/11/30 08:59:53;;;;;;;31.88;7.15;;;;;;;;;;5015527;28;20432;-88
2021/11/30 09:02:20;;;;;;;42.25;6.72;;;;;;;;;;5013128;28;20025;-88
2021/11/30 09:04:46;;;;;;;41.08;6.40;;;;;;;;;;5030552;28;20545;-87
2021/11/30 09:07:15;;;;;;;29.15;5.65;;;;;;;;;;5016629;28;20108;-87
2021/11/30 09:09:40;;;;;;;32.00;5.28;;;;;;;;;;5012619;28;20397;-87
2021/11/30 09:12:05;;;;;;;30.80;5.75;;;;;;;;;;5013430;28;20024;-87
2021/11/30 09:14:31;;;;;;;31.17;5.78;;;;;;;;;;5013084;28;20025;-88
2021/11/30 09:16:57;;;;;;;36.13;6.03;;;;;;;;;;5028874;28;20051;-88
2021/11/30 09:19:22;;;;;;;38.42;7.20;;;;;;;;;;5030632;28;20363;-88
2021/11/30 09:21:48;;;;;;;35.40;7.32;;;;;;;;;;5012508;28;20018;-88
2021/11/30 09:24:15;;;;;;;27.80;5.75;;;;;;;;;;5011720;28;20051;-88
2021/11/30 09:26:42;;;;;;;35.88;7.25;;;;;;;;;;5011654;28;20028;-88
2021/11/30 09:29:09;;;;;;;29.48;5.63;;;;;;;;;;5019910;28;20033;-88
2021/11/30 09:31:35;;;;;;;33.85;7.05;;;;;;;;;;5012351;28;20021;-88
2021/11/30 09:34:02;;;;;;;33.72;6.65;;;;;;;;;;5018948;28;20049;-88
2021/11/30 09:36:27;;;;;;;34.20;5.55;;;;;;;;;;5032109;28;20017;-88
2021/11/30 09:38:53;;;;;;;32.13;7.50;;;;;;;;;;5036823;28;20436;-88
2021/11/30 09:41:22;;;;;;;32.03;7.25;;;;;;;;;;5012267;28;20017;-88
2021/11/30 09:43:49;;;;;;;38.22;8.32;;;;;;;;;;5011186;28;20053;-88
2021/11/30 09:46:15;;;;;;;35.95;7.82;;;;;;;;;;5012116;28;20087;-88
2021/11/30 09:48:41;;;;;;;29.65;5.35;;;;;;;;;;5012299;28;20026;-88
2021/11/30 09:51:10;;;;;;;29.25;5.40;;;;;;;;;;5011812;28;20033;-88
2021/11/30 09:53:37;;;;;;;26.88;4.30;;;;;;;;;;5017984;28;20498;-88
2021/11/30 09:56:04;;;;;;;34.60;6.03;;;;;;;;;;5012238;28;20036;-88
2021/11/30 09:58:29;;;;;;;27.88;6.07;;;;;;;;;;5027955;28;20381;-88
2021/11/30 10:00:56;;;;;;;27.88;5.25;;;;;;;;;;5025021;28;20026;-88
2021/11/30 10:03:23;;;;;;;31.00;4.97;;;;;;;;;;5030422;28;20033;-88
2021/11/30 10:05:48;;;;;;;23.05;5.15;;;;;;;;;;5028362;28;20021;-88
2021/11/30 10:08:43;;;;;;;25.58;5.20;;;;;;;;;;5011421;28;20044;-88
2021/11/30 10:11:12;;;;;;;25.25;4.93;;;;;;;;;;5011300;28;20041;-89
2021/11/30 10:13:40;;;;;;;28.27;5.25;;;;;;;;;;5019155;28;20028;-88
2021/11/30 10:16:08;;;;;;;44.92;7.00;;;;;;;;;;5011153;28;20053;-88
2021/11/30 10:18:33;;;;;;;28.42;5.35;;;;;;;;;;5010183;28;20028;-88
2021/11/30 10:21:08;;;;;;;24.95;6.43;;;;;;;;;;5017634;28;20114;-87
2021/11/30 10:23:52;;;;;;;28.38;6.85;;;;;;;;;;5029610;28;20025;-88
2021/11/30 10:26:19;;;;;;;28.13;5.57;;;;;;;;;;5010709;28;20061;-88
2021/11/30 10:28:49;;;;;;;32.00;5.97;;;;;;;;;;5011470;28;20033;-88
2021/11/30 10:33:49;;;;;;;31.40;5.63;;;;;;;;;;5019321;23;20058;-88
2021/11/30 10:36:17;;;;;;;39.92;6.03;;;;;;;;;;5075821;22;20052;-88
2021/11/30 10:38:43;;;;;;;37.00;5.97;;;;;;;;;;5035474;28;20824;-88
2021/11/30 10:41:16;;;;;;;31.67;4.80;;;;;;;;;;5010857;28;20112;-88
2021/11/30 10:43:51;;;;;;;31.65;5.00;;;;;;;;;;4761350;22;20061;-89
2021/11/30 10:46:36;;;;;;;37.60;6.07;;;;;;;;;;5010007;28;20811;-89
2021/11/30 10:49:12;;;;;;;24.05;4.53;;;;;;;;;;5017919;28;20128;-89
2021/11/30 10:51:47;;;;;;;37.80;8.50;;;;;;;;;;5030172;28;20537;-91
2021/11/30 10:54:13;;;;;;;34.53;6.82;;;;;;;;;;5044931;23;20475;-89
2021/11/30 10:56:41;;;;;;;24.90;5.38;;;;;;;;;;5030518;28;20025;-89
2021/11/30 10:59:13;;;;;;;37.10;6.18;;;;;;;;;;5012938;28;20021;-89
2021/11/30 11:01:47;;;;;;;31.88;6.85;;;;;;;;;;5030315;28;20112;-89
2021/11/30 11:04:18;;;;;;;30.40;5.75;;;;;;;;;;5029659;28;20028;-89
2021/11/30 11:07:04;;;;;;;26.17;5.75;;;;;;;;;;5030015;28;20032;-89
2021/11/30 11:09:43;;;;;;;26.08;4.88;;;;;;;;;;5173761;22;20428;-89
2021/11/30 11:12:10;;;;;;;32.63;6.83;;;;;;;;;;5030445;28;20472;-89
2021/11/30 11:14:55;;;;;;;28.42;6.75;;;;;;;;;;5017926;28;20287;-90
2021/11/30 11:17:32;;;;;;;20.27;3.85;;;;;;;;;;5013118;28;20041;-89
2021/11/30 11:19:59;;;;;;;19.23;3.08;;;;;;;;;;5013794;28;20370;-89
2021/11/30 11:22:26;;;;;;;14.93;3.65;;;;;;;;;;5014285;28;20033;-89
2021/11/30 11:24:54;;;;;;;15.43;4.32;;;;;;;;;;5015000;28;20026;-89
2021/11/30 11:27:33;;;;;;;19.85;3.60;;;;;;;;;;5014726;28;20141;-89
2021/11/30 11:30:00;;;;;;;23.98;4.03;;;;;;;;;;5021237;28;20057;-89
2021/11/30 11:32:26;;;;;;;17.90;3.90;;;;;;;;;;5014870;28;20018;-89
2021/11/30 11:34:52;;;;;;;20.67;3.53;;;;;;;;;;5027918;28;20047;-89
2021/11/30 11:37:17;;;;;;;21.00;3.97;;;;;;;;;;5033309;28;20028;-89
2021/11/30 11:39:43;;;;;;;20.38;3.95;;;;;;;;;;4997862;28;20029;-88
2021/11/30 11:42:09;;;;;;;27.88;4.45;;;;;;;;;;5014245;28;20764;-89
2021/11/30 11:47:05;;;;;;;21.75;4.63;;;;;;;;;;5087133;22;20424;-89
2021/11/30 11:49:36;;;;;;;24.52;5.00;;;;;;;;;;5019154;28;20041;-88
2021/11/30 11:52:02;;;;;;;26.60;4.40;;;;;;;;;;5013770;28;20037;-88
2021/11/30 11:54:30;;;;;;;24.23;4.80;;;;;;;;;;5032289;28;20430;-88
2021/11/30 11:56:56;;;;;;;24.85;4.32;;;;;;;;;;5014166;28;20033;-88
2021/11/30 11:59:21;;;;;;;19.92;3.58;;;;;;;;;;5026153;28;20075;-88
2021/11/30 12:01:48;;;;;;;22.30;3.78;;;;;;;;;;5052321;28;20029;-88
2021/11/30 12:04:15;;;;;;;20.42;4.88;;;;;;;;;;5034350;28;20075;-88
2021/11/30 12:07:01;;;;;;;25.60;4.20;;;;;;;;;;5033485;28;20419;-88
2021/11/30 12:09:37;;;;;;;26.70;4.57;;;;;;;;;;5033902;28;20067;-88
2021/11/30 12:12:09;;;;;;;26.15;4.47;;;;;;;;;;5033957;28;20469;-88
2021/11/30 12:14:42;;;;;;;21.13;3.42;;;;;;;;;;5033142;28;20056;-89
2021/11/30 12:17:15;;;;;;;22.58;3.65;;;;;;;;;;5031619;28;20055;-89
2021/11/30 12:19:40;;;;;;;18.65;3.75;;;;;;;;;;5032573;28;20029;-88
2021/11/30 12:22:06;;;;;;;25.27;5.13;;;;;;;;;;5031158;28;20028;-89
2021/11/30 12:27:18;;;;;;;19.17;3.67;;;;;;;;;;5056219;22;20547;-89
2021/11/30 12:29:51;;;;;;;16.77;3.63;;;;;;;;;;5013271;28;20099;-89
2021/11/30 12:38:18;;;;;;;14.20;3.08;;;;;;;;;;4547017;22;20048;-89
2021/11/30 12:40:48;;;;;;;14.70;3.15;;;;;;;;;;5051817;28;20028;-89
2021/11/30 12:43:22;;;;;;;14.57;2.83;;;;;;;;;;5052277;28;20550;-89
2021/11/30 12:45:50;;;;;;;12.35;2.40;;;;;;;;;;5048692;28;20020;-89
2021/11/30 12:48:20;;;;;;;13.77;4.57;;;;;;;;;;5051062;28;20045;-89
2021/11/30 12:50:58;;;;;;;10.52;2.70;;;;;;;;;;5042924;28;20439;-89
2021/11/30 12:53:43;;;;;;;10.32;2.35;;;;;;;;;;5051656;28;20713;-89
2021/11/30 12:56:13;;;;;;;17.77;2.72;;;;;;;;;;5050713;28;20029;-89
2021/11/30 12:58:39;;;;;;;7.85;1.83;;;;;;;;;;5048032;28;20029;-89
2021/11/30 13:01:23;;;;;;;7.18;1.40;;;;;;;;;;5050522;28;20020;-89
2021/11/30 13:03:51;;;;;;;16.88;2.78;;;;;;;;;;5052344;28;20277;-89
2021/11/30 13:06:18;;;;;;;13.40;2.10;;;;;;;;;;5052466;28;20048;-89
2021/11/30 13:09:12;;;;;;;10.57;2.28;;;;;;;;;;5049468;28;20124;-88
2021/11/30 13:14:08;;;;;;;15.87;2.93;;;;;;;;;;4366003;22;20061;-89
2021/11/30 13:16:34;;;;;;;15.45;1.60;;;;;;;;;;5053850;28;20024;-89
2021/11/30 13:19:04;;;;;;;22.60;2.33;;;;;;;;;;5030307;28;20070;-89
2021/11/30 13:21:34;;;;;;;9.68;2.03;;;;;;;;;;5049806;28;20502;-89
2021/11/30 13:26:41;;;;;;;8.37;2.47;;;;;;;;;;5053878;22;20554;-89
2021/11/30 13:29:07;;;;;;;13.27;2.20;;;;;;;;;;5020410;28;20446;-89
2021/11/30 13:31:34;;;;;;;10.68;1.75;;;;;;;;;;5011801;28;20116;-89
2021/11/30 13:33:59;;;;;;;10.32;2.78;;;;;;;;;;5011229;28;20081;-89
2021/11/30 13:36:31;;;;;;;7.10;1.85;;;;;;;;;;5030631;28;20025;-89
2021/11/30 13:39:03;;;;;;;8.63;2.35;;;;;;;;;;5010571;28;20053;-88
2021/11/30 13:41:30;;;;;;;8.80;2.05;;;;;;;;;;5012526;28;20167;-88
2021/11/30 13:43:56;;;;;;;14.75;3.10;;;;;;;;;;5011540;28;20107;-89
2021/11/30 13:46:29;;;;;;;13.48;3.55;;;;;;;;;;5011937;28;20101;-88
2021/11/30 13:48:56;;;;;;;10.95;1.77;;;;;;;;;;5011671;28;20025;-88
2021/11/30 13:51:24;;;;;;;10.60;2.13;;;;;;;;;;5012546;28;20422;-88
2021/11/30 13:53:54;;;;;;;5.22;1.70;;;;;;;;;;5010325;28;20025;-89
2021/11/30 13:56:23;;;;;;;7.88;2.03;;;;;;;;;;5011391;28;20017;-88
2021/11/30 13:58:57;;;;;;;14.75;2.53;;;;;;;;;;5010753;28;20087;-88
2021/11/30 14:01:36;;;;;;;18.75;1.92;;;;;;;;;;5011334;28;20484;-89
2021/11/30 14:04:02;;;;;;;9.93;1.40;;;;;;;;;;5007072;28;20040;-88
2021/11/30 14:06:29;;;;;;;10.38;2.17;;;;;;;;;;5010959;28;20017;-88
2021/11/30 14:09:05;;;;;;;7.03;2.00;;;;;;;;;;5013092;28;20040;-88
2021/11/30 14:11:31;;;;;;;10.35;1.77;;;;;;;;;;5011812;28;20052;-89
2021/11/30 14:13:58;;;;;;;7.82;1.67;;;;;;;;;;5011374;28;20075;-89
2021/11/30 14:16:26;;;;;;;10.13;1.90;;;;;;;;;;5011089;28;20026;-88
2021/11/30 14:18:52;;;;;;;7.53;1.48;;;;;;;;;;5011258;28;20077;-88
2021/11/30 14:21:19;;;;;;;5.95;1.40;;;;;;;;;;5028872;28;20032;-88
2021/11/30 14:23:45;;;;;;;6.47;1.80;;;;;;;;;;5011242;28;20029;-88
2021/11/30 14:26:28;;;;;;;4.43;1.52;;;;;;;;;;5028415;28;20057;-88
2021/11/30 14:29:03;;;;;;;7.72;1.65;;;;;;;;;;5011339;28;20040;-89
2021/11/30 14:31:48;;;;;;;9.25;2.13;;;;;;;;;;5029544;28;20025;-88
2021/11/30 14:34:14;;;;;;;12.32;2.90;;;;;;;;;;5013387;28;20030;-88
2021/11/30 14:36:41;;;;;;;5.07;1.35;;;;;;;;;;5010872;28;20021;-89
2021/11/30 14:39:27;;;;;;;8.43;2.10;;;;;;;;;;5011047;28;20033;-88
2021/11/30 14:41:53;;;;;;;11.02;1.98;;;;;;;;;;5010471;28;20110;-89
2021/11/30 14:44:24;;;;;;;10.30;1.52;;;;;;;;;;5011208;28;20029;-89
2021/11/30 14:46:51;;;;;;;10.68;2.22;;;;;;;;;;5015277;28;20029;-88
2021/11/30 14:49:17;;;;;;;6.97;1.60;;;;;;;;;;5014140;28;20064;-88
2021/11/30 14:51:42;;;;;;;8.88;2.17;;;;;;;;;;5015024;28;20025;-88
2021/11/30 14:54:12;;;;;;;8.27;1.45;;;;;;;;;;5015653;28;20018;-88
2021/11/30 14:56:44;;;;;;;9.15;1.75;;;;;;;;;;5015637;28;20821;-88
2021/11/30 14:59:10;;;;;;;5.68;1.48;;;;;;;;;;5015034;28;20056;-88
2021/11/30 15:01:40;;;;;;;6.68;2.22;;;;;;;;;;5014642;28;20032;-88
2021/11/30 15:04:07;;;;;;;9.27;1.70;;;;;;;;;;5015216;28;20026;-88
2021/11/30 15:06:32;;;;;;;8.95;1.25;;;;;;;;;;5014724;28;20025;-88
2021/11/30 15:09:05;;;;;;;10.82;2.35;;;;;;;;;;5013984;28;20055;-88
2021/11/30 15:11:37;;;;;;;6.18;1.40;;;;;;;;;;5032224;28;20055;-88
2021/11/30 15:14:03;;;;;;;6.72;1.95;;;;;;;;;;5016041;28;20378;-88
2021/11/30 15:16:30;;;;;;;9.57;1.95;;;;;;;;;;5016518;28;20074;-88
2021/11/30 15:19:04;;;;;;;12.95;1.70;;;;;;;;;;5015402;28;20021;-88